sensor_id;sensor_type;location;lat;lon;timestamp;pressure;altitude;pressure_sealevel;temperature;humidity
75221;BME280;63802;53.232;6.570;2023-07-02T00:00:03;100540.25;;;14.81;100.00
75221;BME280;63802;53.232;6.570;2023-07-02T00:02:30;100555.13;;;14.90;100.00
75221;BME280;63802;53.232;6.570;2023-07-02T00:04:55;100545.72;;;14.81;100.00
75221;BME280;63802;53.232;6.570;2023-07-02T00:07:21;100556.75;;;14.77;100.00
75221;BME280;63802;53.232;6.570;2023-07-02T00:09:46;100551.25;;;14.77;100.00
75221;BME280;63802;53.232;6.570;2023-07-02T00:12:13;100548.50;;;14.73;100.00
75221;BME280;63802;53.232;6.570;2023-07-02T00:14:38;100554.41;;;14.75;100.00
75221;BME280;63802;53.232;6.570;2023-07-02T00:17:03;100555.97;;;14.76;100.00
75221;BME280;63802;53.232;6.570;2023-07-02T00:19:29;100547.34;;;14.74;100.00
75221;BME280;63802;53.232;6.570;2023-07-02T00:21:54;100556.38;;;14.68;100.00
75221;BME280;63802;53.232;6.570;2023-07-02T00:24:20;100546.59;;;14.63;100.00
75221;BME280;63802;53.232;6.570;2023-07-02T00:26:46;100556.78;;;14.66;100.00
75221;BME280;63802;53.232;6.570;2023-07-02T00:29:11;100551.31;;;14.63;100.00
75221;BME280;63802;53.232;6.570;2023-07-02T00:31:37;100548.94;;;14.61;100.00
75221;BME280;63802;53.232;6.570;2023-07-02T00:34:03;100539.94;;;14.54;100.00
75221;BME280;63802;53.232;6.570;2023-07-02T00:36:30;100549.75;;;14.48;100.00
75221;BME280;63802;53.232;6.570;2023-07-02T00:38:56;100545.84;;;14.45;100.00
75221;BME280;63802;53.232;6.570;2023-07-02T00:41:22;100544.66;;;14.46;100.00
75221;BME280;63802;53.232;6.570;2023-07-02T00:43:47;100549.75;;;14.37;100.00
75221;BME280;63802;53.232;6.570;2023-07-02T00:46:14;100543.13;;;14.31;100.00
75221;BME280;63802;53.232;6.570;2023-07-02T00:48:46;100549.75;;;14.27;100.00
75221;BME280;63802;53.232;6.570;2023-07-02T00:51:15;100549.78;;;14.20;100.00
75221;BME280;63802;53.232;6.570;2023-07-02T00:53:40;100545.47;;;14.15;100.00
75221;BME280;63802;53.232;6.570;2023-07-02T00:56:06;100550.56;;;14.13;100.00
75221;BME280;63802;53.232;6.570;2023-07-02T00:58:34;100545.06;;;14.06;100.00
75221;BME280;63802;53.232;6.570;2023-07-02T01:01:02;100551.72;;;14.12;100.00
75221;BME280;63802;53.232;6.570;2023-07-02T01:03:28;100552.13;;;14.10;100.00
75221;BME280;63802;53.232;6.570;2023-07-02T01:05:54;100545.84;;;14.03;100.00
75221;BME280;63802;53.232;6.570;2023-07-02T01:08:19;100544.28;;;13.98;100.00
75221;BME280;63802;53.232;6.570;2023-07-02T01:10:45;100541.94;;;14.00;100.00
75221;BME280;63802;53.232;6.570;2023-07-02T01:13:14;100544.28;;;14.02;100.00
75221;BME280;63802;53.232;6.570;2023-07-02T01:15:42;100535.25;;;14.01;100.00
75221;BME280;63802;53.232;6.570;2023-07-02T01:18:09;100535.66;;;14.03;100.00
75221;BME280;63802;53.232;6.570;2023-07-02T01:20:36;100537.63;;;13.99;100.00
75221;BME280;63802;53.232;6.570;2023-07-02T01:23:02;100534.88;;;13.92;100.00
75221;BME280;63802;53.232;6.570;2023-07-02T01:25:29;100538.03;;;13.91;100.00
75221;BME280;63802;53.232;6.570;2023-07-02T01:27:55;100536.44;;;13.90;100.00
75221;BME280;63802;53.232;6.570;2023-07-02T01:30:21;100538.03;;;13.91;100.00
75221;BME280;63802;53.232;6.570;2023-07-02T01:32:47;100536.06;;;13.88;100.00
75221;BME280;63802;53.232;6.570;2023-07-02T01:35:12;100535.66;;;13.89;100.00
75221;BME280;63802;53.232;6.570;2023-07-02T01:37:37;100524.31;;;13.84;100.00
75221;BME280;63802;53.232;6.570;2023-07-02T01:40:04;100538.03;;;13.84;100.00
75221;BME280;63802;53.232;6.570;2023-07-02T01:42:33;100538.78;;;13.81;100.00
75221;BME280;63802;53.232;6.570;2023-07-02T01:44:58;100531.75;;;13.76;100.00
75221;BME280;63802;53.232;6.570;2023-07-02T01:47:24;100527.44;;;13.72;100.00
75221;BME280;63802;53.232;6.570;2023-07-02T01:49:50;100539.56;;;13.67;100.00
75221;BME280;63802;53.232;6.570;2023-07-02T01:52:16;100543.47;;;13.63;100.00
75221;BME280;63802;53.232;6.570;2023-07-02T01:54:42;100534.84;;;13.61;100.00
75221;BME280;63802;53.232;6.570;2023-07-02T01:57:07;100535.66;;;13.65;100.00
75221;BME280;63802;53.232;6.570;2023-07-02T01:59:33;100530.94;;;13.62;100.00
75221;BME280;63802;53.232;6.570;2023-07-02T02:01:59;100539.56;;;13.64;100.00
75221;BME280;63802;53.232;6.570;2023-07-02T02:04:24;100541.13;;;13.58;100.00
75221;BME280;63802;53.232;6.570;2023-07-02T02:06:49;100550.53;;;13.53;100.00
75221;BME280;63802;53.232;6.570;2023-07-02T02:09:15;100551.66;;;13.49;100.00
75221;BME280;63802;53.232;6.570;2023-07-02T02:11:45;100554.38;;;13.41;100.00
75221;BME280;63802;53.232;6.570;2023-07-02T02:14:11;100553.63;;;13.41;100.00
75221;BME280;63802;53.232;6.570;2023-07-02T02:16:37;100555.19;;;13.38;100.00
75221;BME280;63802;53.232;6.570;2023-07-02T02:19:02;100557.09;;;13.34;100.00
75221;BME280;63802;53.232;6.570;2023-07-02T02:21:28;100558.28;;;13.30;100.00
75221;BME280;63802;53.232;6.570;2023-07-02T02:23:53;100558.66;;;13.21;100.00
75221;BME280;63802;53.232;6.570;2023-07-02T02:26:21;100559.03;;;13.23;100.00
75221;BME280;63802;53.232;6.570;2023-07-02T02:28:46;100562.94;;;13.22;100.00
75221;BME280;63802;53.232;6.570;2023-07-02T02:31:12;100565.69;;;13.22;100.00
75221;BME280;63802;53.232;6.570;2023-07-02T02:33:38;100559.81;;;13.17;100.00
75221;BME280;63802;53.232;6.570;2023-07-02T02:36:05;100561.00;;;13.19;100.00
75221;BME280;63802;53.232;6.570;2023-07-02T02:38:30;100566.88;;;13.21;100.00
75221;BME280;63802;53.232;6.570;2023-07-02T02:40:56;100568.41;;;13.15;100.00
75221;BME280;63802;53.232;6.570;2023-07-02T02:43:21;100574.25;;;13.10;100.00
75221;BME280;63802;53.232;6.570;2023-07-02T02:45:47;100566.75;;;13.00;100.00
75221;BME280;63802;53.232;6.570;2023-07-02T02:48:15;100579.28;;;13.01;100.00
75221;BME280;63802;53.232;6.570;2023-07-02T02:50:41;100577.72;;;13.00;100.00
75221;BME280;63802;53.232;6.570;2023-07-02T02:53:08;100565.19;;;12.99;100.00
75221;BME280;63802;53.232;6.570;2023-07-02T02:55:33;100573.38;;;12.92;100.00
75221;BME280;63802;53.232;6.570;2023-07-02T02:57:59;100580.78;;;12.92;100.00
75221;BME280;63802;53.232;6.570;2023-07-02T03:00:27;100570.59;;;12.85;100.00
75221;BME280;63802;53.232;6.570;2023-07-02T03:02:53;100574.94;;;12.93;100.00
75221;BME280;63802;53.232;6.570;2023-07-02T03:05:18;100573.75;;;12.91;100.00
75221;BME280;63802;53.232;6.570;2023-07-02T03:07:44;100577.63;;;12.86;100.00
75221;BME280;63802;53.232;6.570;2023-07-02T03:10:09;100581.53;;;12.85;100.00
75221;BME280;63802;53.232;6.570;2023-07-02T03:12:35;100582.31;;;12.82;100.00
75221;BME280;63802;53.232;6.570;2023-07-02T03:15:00;100571.34;;;12.78;100.00
75221;BME280;63802;53.232;6.570;2023-07-02T03:17:26;100579.94;;;12.77;100.00
75221;BME280;63802;53.232;6.570;2023-07-02T03:19:51;100580.28;;;12.72;100.00
75221;BME280;63802;53.232;6.570;2023-07-02T03:22:17;100583.06;;;12.75;100.00
75221;BME280;63802;53.232;6.570;2023-07-02T03:24:42;100579.53;;;12.75;100.00
75221;BME280;63802;53.232;6.570;2023-07-02T03:27:07;100581.91;;;12.80;100.00
75221;BME280;63802;53.232;6.570;2023-07-02T03:29:36;100578.41;;;12.83;100.00
75221;BME280;63802;53.232;6.570;2023-07-02T03:32:03;100585.47;;;12.91;100.00
75221;BME280;63802;53.232;6.570;2023-07-02T03:34:29;100580.00;;;12.88;100.00
75221;BME280;63802;53.232;6.570;2023-07-02T03:36:54;100576.50;;;12.94;100.00
75221;BME280;63802;53.232;6.570;2023-07-02T03:39:20;100584.75;;;13.01;100.00
75221;BME280;63802;53.232;6.570;2023-07-02T03:41:45;100592.63;;;13.06;100.00
75221;BME280;63802;53.232;6.570;2023-07-02T03:44:11;100584.84;;;13.12;100.00
75221;BME280;63802;53.232;6.570;2023-07-02T03:46:36;100587.19;;;13.13;100.00
75221;BME280;63802;53.232;6.570;2023-07-02T03:49:02;100579.75;;;13.17;100.00
75221;BME280;63802;53.232;6.570;2023-07-02T03:51:31;100585.66;;;13.19;100.00
75221;BME280;63802;53.232;6.570;2023-07-02T03:53:58;100586.06;;;13.21;100.00
75221;BME280;63802;53.232;6.570;2023-07-02T03:56:24;100582.53;;;13.24;100.00
75221;BME280;63802;53.232;6.570;2023-07-02T03:58:50;100586.06;;;13.28;100.00
75221;BME280;63802;53.232;6.570;2023-07-02T04:01:15;100581.78;;;13.31;100.00
75221;BME280;63802;53.232;6.570;2023-07-02T04:03:48;100589.63;;;13.39;100.00
75221;BME280;63802;53.232;6.570;2023-07-02T04:06:14;100597.50;;;13.48;100.00
75221;BME280;63802;53.232;6.570;2023-07-02T04:08:39;100591.66;;;13.53;100.00
75221;BME280;63802;53.232;6.570;2023-07-02T04:11:05;100595.94;;;13.54;100.00
75221;BME280;63802;53.232;6.570;2023-07-02T04:13:30;100596.34;;;13.60;100.00
75221;BME280;63802;53.232;6.570;2023-07-02T04:15:55;100584.19;;;13.61;100.00
75221;BME280;63802;53.232;6.570;2023-07-02T04:18:21;100594.78;;;13.73;100.00
75221;BME280;63802;53.232;6.570;2023-07-02T04:20:47;100600.72;;;13.82;100.00
75221;BME280;63802;53.232;6.570;2023-07-02T04:23:12;100597.56;;;13.87;100.00
75221;BME280;63802;53.232;6.570;2023-07-02T04:25:38;100593.28;;;13.93;100.00
75221;BME280;63802;53.232;6.570;2023-07-02T04:28:03;100610.91;;;13.99;100.00
75221;BME280;63802;53.232;6.570;2023-07-02T04:30:28;100595.25;;;14.03;100.00
75221;BME280;63802;53.232;6.570;2023-07-02T04:32:54;100602.31;;;14.15;100.00
75221;BME280;63802;53.232;6.570;2023-07-02T04:35:19;100592.13;;;14.15;100.00
75221;BME280;63802;53.232;6.570;2023-07-02T04:37:45;100601.53;;;14.25;100.00
75221;BME280;63802;53.232;6.570;2023-07-02T04:40:11;100600.72;;;14.24;100.00
75221;BME280;63802;53.232;6.570;2023-07-02T04:42:41;100596.41;;;14.23;100.00
75221;BME280;63802;53.232;6.570;2023-07-02T04:45:12;100603.88;;;14.19;100.00
75221;BME280;63802;53.232;6.570;2023-07-02T04:47:40;100601.13;;;14.16;100.00
75221;BME280;63802;53.232;6.570;2023-07-02T04:50:06;100606.22;;;14.13;100.00
75221;BME280;63802;53.232;6.570;2023-07-02T04:52:31;100607.00;;;14.18;100.00
75221;BME280;63802;53.232;6.570;2023-07-02T04:54:57;100607.41;;;14.30;100.00
75221;BME280;63802;53.232;6.570;2023-07-02T04:57:22;100602.31;;;14.46;100.00
75221;BME280;63802;53.232;6.570;2023-07-02T04:59:48;100607.03;;;14.63;100.00
75221;BME280;63802;53.232;6.570;2023-07-02T05:02:13;100611.69;;;14.77;100.00
75221;BME280;63802;53.232;6.570;2023-07-02T05:04:39;100619.09;;;14.91;100.00
75221;BME280;63802;53.232;6.570;2023-07-02T05:07:04;100614.34;;;15.05;100.00
75221;BME280;63802;53.232;6.570;2023-07-02T05:09:30;100614.75;;;15.11;100.00
75221;BME280;63802;53.232;6.570;2023-07-02T05:11:57;100613.47;;;15.33;100.00
75221;BME280;63802;53.232;6.570;2023-07-02T05:14:22;100616.09;;;15.65;100.00
75221;BME280;63802;53.232;6.570;2023-07-02T05:16:48;100613.94;;;15.97;100.00
75221;BME280;63802;53.232;6.570;2023-07-02T05:19:13;100614.19;;;16.17;100.00
75221;BME280;63802;53.232;6.570;2023-07-02T05:21:39;100602.06;;;16.03;100.00
75221;BME280;63802;53.232;6.570;2023-07-02T05:24:05;100616.63;;;16.00;100.00
75221;BME280;63802;53.232;6.570;2023-07-02T05:26:30;100616.31;;;15.91;100.00
75221;BME280;63802;53.232;6.570;2023-07-02T05:28:56;100610.84;;;15.88;100.00
75221;BME280;63802;53.232;6.570;2023-07-02T05:31:21;100613.28;;;15.75;100.00
75221;BME280;63802;53.232;6.570;2023-07-02T05:33:47;100616.06;;;15.68;100.00
75221;BME280;63802;53.232;6.570;2023-07-02T05:36:12;100628.63;;;15.69;100.00
75221;BME280;63802;53.232;6.570;2023-07-02T05:38:38;100624.88;;;16.04;100.00
75221;BME280;63802;53.232;6.570;2023-07-02T05:41:03;100609.53;;;16.06;100.00
75221;BME280;63802;53.232;6.570;2023-07-02T05:43:29;100627.66;;;16.00;100.00
75221;BME280;63802;53.232;6.570;2023-07-02T05:45:58;100632.81;;;15.91;100.00
75221;BME280;63802;53.232;6.570;2023-07-02T05:48:26;100637.91;;;15.96;100.00
75221;BME280;63802;53.232;6.570;2023-07-02T05:50:51;100629.78;;;16.30;100.00
75221;BME280;63802;53.232;6.570;2023-07-02T05:53:17;100645.31;;;16.61;100.00
75221;BME280;63802;53.232;6.570;2023-07-02T05:55:42;100634.69;;;16.60;100.00
75221;BME280;63802;53.232;6.570;2023-07-02T05:58:08;100644.78;;;16.73;100.00
75221;BME280;63802;53.232;6.570;2023-07-02T06:00:34;100643.06;;;16.90;100.00
75221;BME280;63802;53.232;6.570;2023-07-02T06:02:59;100641.03;;;16.94;100.00
75221;BME280;63802;53.232;6.570;2023-07-02T06:05:25;100641.63;;;17.12;100.00
75221;BME280;63802;53.232;6.570;2023-07-02T06:07:50;100652.88;;;17.28;100.00
75221;BME280;63802;53.232;6.570;2023-07-02T06:10:15;100648.41;;;17.38;100.00
75221;BME280;63802;53.232;6.570;2023-07-02T06:12:42;100637.94;;;17.26;100.00
75221;BME280;63802;53.232;6.570;2023-07-02T06:15:08;100649.38;;;17.24;100.00
75221;BME280;63802;53.232;6.570;2023-07-02T06:17:34;100643.97;;;17.14;100.00
75221;BME280;63802;53.232;6.570;2023-07-02T06:20:00;100643.19;;;17.13;100.00
75221;BME280;63802;53.232;6.570;2023-07-02T06:22:25;100655.44;;;17.42;100.00
75221;BME280;63802;53.232;6.570;2023-07-02T06:24:50;100648.19;;;17.59;100.00
75221;BME280;63802;53.232;6.570;2023-07-02T06:27:16;100652.66;;;17.80;100.00
75221;BME280;63802;53.232;6.570;2023-07-02T06:29:41;100662.75;;;17.90;100.00
75221;BME280;63802;53.232;6.570;2023-07-02T06:32:06;100670.84;;;17.74;100.00
75221;BME280;63802;53.232;6.570;2023-07-02T06:34:32;100663.50;;;17.94;100.00
75221;BME280;63802;53.232;6.570;2023-07-02T06:36:58;100659.59;;;18.18;100.00
75221;BME280;63802;53.232;6.570;2023-07-02T06:39:23;100666.41;;;18.10;100.00
75221;BME280;63802;53.232;6.570;2023-07-02T06:41:49;100663.66;;;18.33;100.00
75221;BME280;63802;53.232;6.570;2023-07-02T06:44:14;100670.41;;;18.59;100.00
75221;BME280;63802;53.232;6.570;2023-07-02T06:46:40;100688.38;;;18.17;94.85
75221;BME280;63802;53.232;6.570;2023-07-02T06:49:05;100674.84;;;17.99;97.14
75221;BME280;63802;53.232;6.570;2023-07-02T06:51:31;100680.88;;;18.44;98.32
75221;BME280;63802;53.232;6.570;2023-07-02T06:53:58;100687.63;;;18.90;98.33
75221;BME280;63802;53.232;6.570;2023-07-02T06:56:24;100704.28;;;18.63;89.16
75221;BME280;63802;53.232;6.570;2023-07-02T06:58:49;100704.41;;;18.56;91.10
75221;BME280;63802;53.232;6.570;2023-07-02T07:01:14;100708.06;;;18.72;92.04
75221;BME280;63802;53.232;6.570;2023-07-02T07:03:40;100697.13;;;18.65;91.84
75221;BME280;63802;53.232;6.570;2023-07-02T07:06:05;100707.25;;;18.76;90.21
75221;BME280;63802;53.232;6.570;2023-07-02T07:08:30;100711.44;;;19.07;90.65
75221;BME280;63802;53.232;6.570;2023-07-02T07:10:56;100708.75;;;19.23;88.64
75221;BME280;63802;53.232;6.570;2023-07-02T07:13:21;100707.06;;;19.29;87.36
75221;BME280;63802;53.232;6.570;2023-07-02T07:15:47;100707.56;;;19.24;85.20
75221;BME280;63802;53.232;6.570;2023-07-02T07:18:12;100712.84;;;19.15;90.27
75221;BME280;63802;53.232;6.570;2023-07-02T07:20:39;100716.13;;;19.29;84.14
75221;BME280;63802;53.232;6.570;2023-07-02T07:23:05;100720.69;;;18.97;81.06
75221;BME280;63802;53.232;6.570;2023-07-02T07:25:31;100718.38;;;19.38;80.08
75221;BME280;63802;53.232;6.570;2023-07-02T07:27:59;100734.06;;;19.64;75.51
75221;BME280;63802;53.232;6.570;2023-07-02T07:30:24;100720.28;;;19.61;75.28
75221;BME280;63802;53.232;6.570;2023-07-02T07:32:50;100734.38;;;19.50;75.35
75221;BME280;63802;53.232;6.570;2023-07-02T07:35:16;100739.97;;;19.86;76.92
75221;BME280;63802;53.232;6.570;2023-07-02T07:37:41;100730.41;;;20.06;74.05
75221;BME280;63802;53.232;6.570;2023-07-02T07:40:07;100727.81;;;19.17;72.53
75221;BME280;63802;53.232;6.570;2023-07-02T07:42:33;100732.09;;;19.45;75.61
75221;BME280;63802;53.232;6.570;2023-07-02T07:44:58;100738.75;;;19.87;74.32
75221;BME280;63802;53.232;6.570;2023-07-02T07:47:24;100737.50;;;20.27;73.02
75221;BME280;63802;53.232;6.570;2023-07-02T07:49:49;100722.72;;;20.50;68.91
75221;BME280;63802;53.232;6.570;2023-07-02T07:52:15;100735.19;;;20.58;69.15
75221;BME280;63802;53.232;6.570;2023-07-02T07:54:40;100723.50;;;20.50;67.68
75221;BME280;63802;53.232;6.570;2023-07-02T07:57:06;100724.63;;;20.53;67.63
75221;BME280;63802;53.232;6.570;2023-07-02T07:59:32;100725.47;;;20.98;69.44
75221;BME280;63802;53.232;6.570;2023-07-02T08:01:57;100729.09;;;20.95;64.67
75221;BME280;63802;53.232;6.570;2023-07-02T08:04:22;100731.03;;;20.98;63.87
75221;BME280;63802;53.232;6.570;2023-07-02T08:06:48;100731.03;;;20.98;64.56
75221;BME280;63802;53.232;6.570;2023-07-02T08:09:13;100734.69;;;21.40;66.30
75221;BME280;63802;53.232;6.570;2023-07-02T08:11:39;100728.59;;;21.00;64.91
75221;BME280;63802;53.232;6.570;2023-07-02T08:14:04;100743.88;;;20.60;67.39
75221;BME280;63802;53.232;6.570;2023-07-02T08:16:29;100735.16;;;20.26;70.73
75221;BME280;63802;53.232;6.570;2023-07-02T08:18:55;100758.50;;;19.26;71.23
75221;BME280;63802;53.232;6.570;2023-07-02T08:21:20;100755.25;;;19.08;73.51
75221;BME280;63802;53.232;6.570;2023-07-02T08:23:46;100763.97;;;18.84;77.71
75221;BME280;63802;53.232;6.570;2023-07-02T08:26:11;100775.72;;;18.64;82.32
75221;BME280;63802;53.232;6.570;2023-07-02T08:28:38;100784.50;;;18.29;97.85
75221;BME280;63802;53.232;6.570;2023-07-02T08:31:04;100783.47;;;17.56;100.00
75221;BME280;63802;53.232;6.570;2023-07-02T08:33:30;100780.16;;;17.27;100.00
75221;BME280;63802;53.232;6.570;2023-07-02T08:35:55;100787.41;;;17.10;100.00
75221;BME280;63802;53.232;6.570;2023-07-02T08:38:21;100793.97;;;17.23;100.00
75221;BME280;63802;53.232;6.570;2023-07-02T08:40:46;100785.63;;;17.30;100.00
75221;BME280;63802;53.232;6.570;2023-07-02T08:43:14;100793.81;;;17.82;100.00
75221;BME280;63802;53.232;6.570;2023-07-02T08:45:41;100800.72;;;18.57;100.00
75221;BME280;63802;53.232;6.570;2023-07-02T08:48:08;100784.38;;;19.39;100.00
75221;BME280;63802;53.232;6.570;2023-07-02T08:50:36;100783.50;;;19.85;99.63
75221;BME280;63802;53.232;6.570;2023-07-02T08:53:01;100780.47;;;20.16;94.55
75221;BME280;63802;53.232;6.570;2023-07-02T08:55:27;100789.25;;;20.50;87.69
75221;BME280;63802;53.232;6.570;2023-07-02T08:57:56;100779.72;;;20.51;83.81
75221;BME280;63802;53.232;6.570;2023-07-02T09:00:25;100785.00;;;20.45;81.45
75221;BME280;63802;53.232;6.570;2023-07-02T09:02:50;100789.03;;;20.25;82.24
75221;BME280;63802;53.232;6.570;2023-07-02T09:05:16;100794.22;;;19.83;80.92
75221;BME280;63802;53.232;6.570;2023-07-02T09:07:49;100807.75;;;18.89;88.41
75221;BME280;63802;53.232;6.570;2023-07-02T09:10:30;100808.97;;;18.88;95.58
75221;BME280;63802;53.232;6.570;2023-07-02T09:13:03;100806.59;;;18.86;95.25
75221;BME280;63802;53.232;6.570;2023-07-02T09:15:35;100808.66;;;18.55;96.88
75221;BME280;63802;53.232;6.570;2023-07-02T09:18:01;100806.41;;;18.43;98.97
75221;BME280;63802;53.232;6.570;2023-07-02T09:20:32;100805.53;;;18.23;96.96
75221;BME280;63802;53.232;6.570;2023-07-02T09:22:58;100808.19;;;18.30;93.39
75221;BME280;63802;53.232;6.570;2023-07-02T09:25:35;100813.28;;;18.89;83.83
75221;BME280;63802;53.232;6.570;2023-07-02T09:28:01;100807.06;;;19.31;76.67
75221;BME280;63802;53.232;6.570;2023-07-02T09:30:27;100809.06;;;20.13;73.65
75221;BME280;63802;53.232;6.570;2023-07-02T09:32:52;100803.88;;;19.95;65.45
75221;BME280;63802;53.232;6.570;2023-07-02T09:35:19;100801.88;;;19.95;64.60
75221;BME280;63802;53.232;6.570;2023-07-02T09:37:46;100803.50;;;19.73;65.15
75221;BME280;63802;53.232;6.570;2023-07-02T09:40:12;100816.03;;;19.81;65.80
75221;BME280;63802;53.232;6.570;2023-07-02T09:42:41;100803.94;;;20.31;65.53
75221;BME280;63802;53.232;6.570;2023-07-02T09:45:08;100815.91;;;20.96;63.35
75221;BME280;63802;53.232;6.570;2023-07-02T09:47:40;100806.97;;;21.04;61.41
75221;BME280;63802;53.232;6.570;2023-07-02T09:50:09;100801.19;;;20.83;58.11
75221;BME280;63802;53.232;6.570;2023-07-02T09:52:35;100813.00;;;20.51;58.71
75221;BME280;63802;53.232;6.570;2023-07-02T09:55:02;100827.00;;;20.63;58.15
75221;BME280;63802;53.232;6.570;2023-07-02T09:57:29;100810.09;;;20.74;55.62
75221;BME280;63802;53.232;6.570;2023-07-02T09:59:56;100798.78;;;21.46;54.35
75221;BME280;63802;53.232;6.570;2023-07-02T10:02:22;100812.59;;;21.78;54.98
75221;BME280;63802;53.232;6.570;2023-07-02T10:04:47;100807.34;;;21.22;53.04
75221;BME280;63802;53.232;6.570;2023-07-02T10:07:30;100815.47;;;20.81;56.56
75221;BME280;63802;53.232;6.570;2023-07-02T10:09:57;100821.44;;;20.63;59.16
75221;BME280;63802;53.232;6.570;2023-07-02T10:12:28;100821.63;;;20.37;61.43
75221;BME280;63802;53.232;6.570;2023-07-02T10:14:55;100811.69;;;20.20;63.45
75221;BME280;63802;53.232;6.570;2023-07-02T10:19:55;100825.53;;;20.20;67.11
75221;BME280;63802;53.232;6.570;2023-07-02T10:22:21;100811.34;;;20.18;67.63
75221;BME280;63802;53.232;6.570;2023-07-02T10:24:58;100815.38;;;19.74;69.20
75221;BME280;63802;53.232;6.570;2023-07-02T10:27:36;100824.53;;;19.90;68.88
75221;BME280;63802;53.232;6.570;2023-07-02T10:30:03;100820.50;;;20.70;65.77
75221;BME280;63802;53.232;6.570;2023-07-02T10:32:29;100818.94;;;21.01;63.31
75221;BME280;63802;53.232;6.570;2023-07-02T10:34:55;100814.44;;;20.91;60.45
75221;BME280;63802;53.232;6.570;2023-07-02T10:37:21;100822.03;;;20.71;61.73
75221;BME280;63802;53.232;6.570;2023-07-02T10:39:47;100822.63;;;20.46;62.67
75221;BME280;63802;53.232;6.570;2023-07-02T10:42:12;100837.38;;;20.40;65.00
75221;BME280;63802;53.232;6.570;2023-07-02T10:44:51;100834.91;;;20.06;66.21
75221;BME280;63802;53.232;6.570;2023-07-02T10:47:18;100842.22;;;19.96;69.09
75221;BME280;63802;53.232;6.570;2023-07-02T10:49:44;100835.34;;;20.04;69.94
75221;BME280;63802;53.232;6.570;2023-07-02T10:52:09;100840.44;;;20.81;65.80
75221;BME280;63802;53.232;6.570;2023-07-02T10:54:53;100850.22;;;20.34;63.30
75221;BME280;63802;53.232;6.570;2023-07-02T10:57:19;100844.09;;;20.94;61.62
75221;BME280;63802;53.232;6.570;2023-07-02T10:59:48;100852.97;;;21.38;57.75
75221;BME280;63802;53.232;6.570;2023-07-02T11:02:14;100861.31;;;21.38;59.81
75221;BME280;63802;53.232;6.570;2023-07-02T11:04:39;100857.09;;;21.62;57.38
75221;BME280;63802;53.232;6.570;2023-07-02T11:07:05;100850.84;;;21.58;56.25
75221;BME280;63802;53.232;6.570;2023-07-02T11:09:31;100870.50;;;21.79;55.43
75221;BME280;63802;53.232;6.570;2023-07-02T11:11:59;100858.03;;;22.29;55.02
75221;BME280;63802;53.232;6.570;2023-07-02T11:14:32;100868.28;;;22.44;53.75
75221;BME280;63802;53.232;6.570;2023-07-02T11:17:00;100875.53;;;21.40;54.69
75221;BME280;63802;53.232;6.570;2023-07-02T11:19:28;100873.69;;;22.23;55.71
75221;BME280;63802;53.232;6.570;2023-07-02T11:21:57;100869.00;;;23.24;54.59
75221;BME280;63802;53.232;6.570;2023-07-02T11:24:36;100879.25;;;23.27;49.79
75221;BME280;63802;53.232;6.570;2023-07-02T11:27:03;100856.59;;;23.50;50.23
75221;BME280;63802;53.232;6.570;2023-07-02T11:29:31;100887.06;;;23.79;50.05
75221;BME280;63802;53.232;6.570;2023-07-02T11:32:08;100874.38;;;22.81;46.23
75221;BME280;63802;53.232;6.570;2023-07-02T11:34:35;100878.41;;;22.38;48.14
75221;BME280;63802;53.232;6.570;2023-07-02T11:37:00;100881.75;;;22.33;50.07
75221;BME280;63802;53.232;6.570;2023-07-02T11:39:26;100882.53;;;22.46;49.67
75221;BME280;63802;53.232;6.570;2023-07-02T11:41:52;100887.22;;;22.49;50.88
75221;BME280;63802;53.232;6.570;2023-07-02T11:44:18;100878.38;;;22.80;48.83
75221;BME280;63802;53.232;6.570;2023-07-02T11:46:44;100886.28;;;23.06;48.48
75221;BME280;63802;53.232;6.570;2023-07-02T11:49:09;100904.66;;;23.04;47.38
75221;BME280;63802;53.232;6.570;2023-07-02T11:51:38;100894.88;;;23.71;48.49
75221;BME280;63802;53.232;6.570;2023-07-02T11:54:04;100875.91;;;23.32;47.57
75221;BME280;63802;53.232;6.570;2023-07-02T11:56:30;100878.84;;;22.91;48.66
75221;BME280;63802;53.232;6.570;2023-07-02T11:58:56;100877.06;;;22.01;53.55
75221;BME280;63802;53.232;6.570;2023-07-02T12:01:21;100889.19;;;22.08;52.71
75221;BME280;63802;53.232;6.570;2023-07-02T12:03:47;100888.94;;;21.89;50.74
75221;BME280;63802;53.232;6.570;2023-07-02T12:06:12;100900.78;;;22.06;52.03
75221;BME280;63802;53.232;6.570;2023-07-02T12:08:38;100892.34;;;21.49;52.20
75221;BME280;63802;53.232;6.570;2023-07-02T12:11:03;100899.63;;;21.26;55.90
75221;BME280;63802;53.232;6.570;2023-07-02T12:13:28;100888.44;;;22.07;55.55
75221;BME280;63802;53.232;6.570;2023-07-02T12:15:54;100903.75;;;21.83;53.95
75221;BME280;63802;53.232;6.570;2023-07-02T12:18:19;100897.75;;;21.40;54.71
75221;BME280;63802;53.232;6.570;2023-07-02T12:20:45;100910.44;;;20.69;55.98
75221;BME280;63802;53.232;6.570;2023-07-02T12:23:11;100906.59;;;21.18;58.52
75221;BME280;63802;53.232;6.570;2023-07-02T12:25:37;100902.38;;;21.91;54.26
75221;BME280;63802;53.232;6.570;2023-07-02T12:28:04;100917.19;;;21.40;52.71
75221;BME280;63802;53.232;6.570;2023-07-02T12:30:30;100904.50;;;21.22;55.05
75221;BME280;63802;53.232;6.570;2023-07-02T12:32:55;100927.56;;;21.19;55.72
75221;BME280;63802;53.232;6.570;2023-07-02T12:35:21;100920.56;;;20.95;56.04
75221;BME280;63802;53.232;6.570;2023-07-02T12:37:48;100931.75;;;20.56;56.89
75221;BME280;63802;53.232;6.570;2023-07-02T12:40:14;100920.22;;;20.38;58.03
75221;BME280;63802;53.232;6.570;2023-07-02T12:42:41;100924.69;;;20.51;58.69